Time;durP1;ratioP1;P1;durP2;ratioP2;P2;SDS_P1;SDS_P2;PMS_P1;PMS_P2;Temp;Humidity;BMP_temperature;BMP_pressure;BME280_temperature;BME280_humidity;BME280_pressure;Samples;Min_cycle;Max_cycle;Signal;HPM_P1;HPM_P2
2023/07/01 00:02:19;;;;;;;5.82;1.92;;;;;;;;;;5045916;28;20056;-79
2023/07/01 00:04:45;;;;;;;3.03;2.13;;;;;;;;;;5063437;28;20034;-79
2023/07/01 00:07:11;;;;;;;8.32;2.40;;;;;;;;;;5043029;28;20038;-80
2023/07/01 00:09:38;;;;;;;3.65;2.45;;;;;;;;;;5063542;28;20466;-77
2023/07/01 00:12:04;;;;;;;6.28;2.40;;;;;;;;;;5063489;28;20040;-80
2023/07/01 00:14:30;;;;;;;3.05;1.45;;;;;;;;;;5062410;28;20072;-77
2023/07/01 00:16:56;;;;;;;3.60;1.65;;;;;;;;;;5041594;28;20056;-77
2023/07/01 00:19:22;;;;;;;5.68;2.03;;;;;;;;;;5055017;28;20029;-78
2023/07/01 00:21:48;;;;;;;6.93;2.00;;;;;;;;;;5047236;28;21175;-78
2023/07/01 00:24:14;;;;;;;2.88;1.90;;;;;;;;;;5040263;28;20029;-79
2023/07/01 00:26:40;;;;;;;4.85;1.75;;;;;;;;;;5062570;28;20049;-79
2023/07/01 00:29:09;;;;;;;3.78;1.77;;;;;;;;;;5042212;28;20056;-79
2023/07/01 00:31:35;;;;;;;4.97;2.20;;;;;;;;;;5063099;28;20040;-77
2023/07/01 00:34:01;;;;;;;4.72;2.13;;;;;;;;;;5046891;28;20061;-78
2023/07/01 00:36:27;;;;;;;4.55;2.00;;;;;;;;;;5046611;28;20017;-79
2023/07/01 00:38:54;;;;;;;6.78;2.25;;;;;;;;;;5047153;28;20048;-78
2023/07/01 00:41:20;;;;;;;7.75;2.05;;;;;;;;;;5048128;28;20038;-79
2023/07/01 00:43:46;;;;;;;7.55;2.22;;;;;;;;;;5061607;28;20029;-80
2023/07/01 00:46:13;;;;;;;5.72;2.05;;;;;;;;;;5056708;28;20083;-79
2023/07/01 00:48:41;;;;;;;4.35;1.70;;;;;;;;;;5047676;28;20029;-78
2023/07/01 00:51:07;;;;;;;4.35;1.73;;;;;;;;;;5047897;28;20052;-77
2023/07/01 00:53:33;;;;;;;5.63;2.05;;;;;;;;;;5047100;28;20039;-79
2023/07/01 00:55:59;;;;;;;2.67;1.88;;;;;;;;;;5046884;28;20037;-79
2023/07/01 00:58:26;;;;;;;7.70;2.17;;;;;;;;;;5041034;28;20036;-78
2023/07/01 01:00:55;;;;;;;4.43;1.95;;;;;;;;;;5045936;28;20032;-77
2023/07/01 01:03:26;;;;;;;3.75;1.70;;;;;;;;;;5034904;28;20029;-77
2023/07/01 01:05:53;;;;;;;3.88;1.90;;;;;;;;;;5061693;28;20089;-78
2023/07/01 01:08:22;;;;;;;7.47;2.00;;;;;;;;;;5041607;28;20553;-78
2023/07/01 01:10:51;;;;;;;3.20;1.92;;;;;;;;;;5042352;28;20029;-80
2023/07/01 01:13:18;;;;;;;3.30;1.88;;;;;;;;;;5041440;28;20029;-80
2023/07/01 01:15:47;;;;;;;4.95;1.80;;;;;;;;;;5034070;28;20032;-79
2023/07/01 01:18:18;;;;;;;3.88;1.80;;;;;;;;;;5041026;28;20029;-79
2023/07/01 01:20:50;;;;;;;2.58;1.85;;;;;;;;;;5047414;28;20032;-79
2023/07/01 01:23:27;;;;;;;2.78;1.55;;;;;;;;;;5062479;28;20034;-78
2023/07/01 01:26:07;;;;;;;3.63;1.80;;;;;;;;;;5054227;28;20091;-78
2023/07/01 01:28:34;;;;;;;5.47;2.70;;;;;;;;;;5041010;28;20029;-79
2023/07/01 01:31:04;;;;;;;4.05;2.40;;;;;;;;;;5046343;28;20045;-80
2023/07/01 01:33:33;;;;;;;4.45;1.90;;;;;;;;;;5062060;28;20040;-79
2023/07/01 01:36:08;;;;;;;2.83;1.65;;;;;;;;;;5045017;28;20033;-79
2023/07/01 01:38:38;;;;;;;4.70;1.90;;;;;;;;;;5040258;28;20029;-77
2023/07/01 01:41:10;;;;;;;3.75;1.20;;;;;;;;;;5061964;28;20132;-80
2023/07/01 01:43:56;;;;;;;5.68;1.98;;;;;;;;;;5041296;28;20025;-78
2023/07/01 01:46:22;;;;;;;2.33;1.60;;;;;;;;;;5035648;28;20064;-79
2023/07/01 01:48:51;;;;;;;6.63;2.20;;;;;;;;;;5045863;28;20037;-78
2023/07/01 01:51:17;;;;;;;6.68;2.05;;;;;;;;;;5034841;28;20059;-79
2023/07/01 01:53:44;;;;;;;3.22;1.50;;;;;;;;;;5036900;28;20079;-79
2023/07/01 01:56:10;;;;;;;6.72;1.80;;;;;;;;;;5054345;28;20052;-76
2023/07/01 01:58:37;;;;;;;5.18;3.47;;;;;;;;;;5061106;28;20034;-78
2023/07/01 02:01:03;;;;;;;3.10;2.20;;;;;;;;;;5040133;28;20033;-79
2023/07/01 02:03:32;;;;;;;3.33;1.67;;;;;;;;;;5037862;28;21683;-80
2023/07/01 02:06:02;;;;;;;3.75;1.88;;;;;;;;;;5061102;28;20037;-79
2023/07/01 02:08:28;;;;;;;4.63;2.53;;;;;;;;;;5054340;28;20025;-79
2023/07/01 02:10:54;;;;;;;3.55;2.72;;;;;;;;;;5033012;28;20017;-78
2023/07/01 02:13:23;;;;;;;4.28;2.30;;;;;;;;;;5034372;28;20055;-79
2023/07/01 02:15:49;;;;;;;6.70;2.70;;;;;;;;;;5045179;28;20036;-78
2023/07/01 02:18:15;;;;;;;6.13;2.13;;;;;;;;;;5039884;28;20052;-80
2023/07/01 02:20:41;;;;;;;4.43;1.85;;;;;;;;;;5038949;28;20040;-79
2023/07/01 02:23:08;;;;;;;6.50;1.90;;;;;;;;;;5039941;28;20021;-79
2023/07/01 02:25:34;;;;;;;2.85;1.60;;;;;;;;;;5046605;28;20098;-78
2023/07/01 02:28:00;;;;;;;3.55;1.67;;;;;;;;;;5041444;28;20037;-78
2023/07/01 02:30:28;;;;;;;6.38;1.77;;;;;;;;;;5039758;28;20026;-77
2023/07/01 02:32:54;;;;;;;4.15;1.45;;;;;;;;;;5060812;28;20021;-79
2023/07/01 02:35:20;;;;;;;4.57;2.22;;;;;;;;;;5034624;28;20445;-78
2023/07/01 02:37:46;;;;;;;3.78;1.48;;;;;;;;;;5041510;28;20033;-80
2023/07/01 02:40:12;;;;;;;4.45;1.83;;;;;;;;;;5044438;28;21285;-79
2023/07/01 02:42:38;;;;;;;4.50;1.85;;;;;;;;;;5045900;28;20034;-79
2023/07/01 02:45:05;;;;;;;5.10;1.70;;;;;;;;;;5040897;28;20097;-79
2023/07/01 02:47:31;;;;;;;5.10;2.03;;;;;;;;;;5044403;28;20029;-79
2023/07/01 02:49:57;;;;;;;3.88;2.00;;;;;;;;;;5044718;28;20018;-80
2023/07/01 02:52:23;;;;;;;4.43;1.73;;;;;;;;;;5039801;28;20028;-78
2023/07/01 02:54:50;;;;;;;6.65;1.90;;;;;;;;;;5034242;28;20025;-78
2023/07/01 02:57:16;;;;;;;5.88;2.03;;;;;;;;;;5064218;28;20037;-80
2023/07/01 02:59:43;;;;;;;6.38;2.50;;;;;;;;;;5048354;28;20029;-79
2023/07/01 03:02:09;;;;;;;3.72;1.80;;;;;;;;;;5036481;28;20044;-78
2023/07/01 03:04:36;;;;;;;8.10;2.38;;;;;;;;;;5043427;28;20033;-77
2023/07/01 03:07:04;;;;;;;7.35;2.30;;;;;;;;;;5043412;28;20048;-78
2023/07/01 03:09:30;;;;;;;4.90;2.03;;;;;;;;;;5048329;28;20029;-80
2023/07/01 03:11:56;;;;;;;9.85;2.28;;;;;;;;;;5044771;28;20056;-76
2023/07/01 03:14:22;;;;;;;5.57;2.00;;;;;;;;;;5043612;28;20040;-79
2023/07/01 03:16:49;;;;;;;5.68;2.20;;;;;;;;;;5036764;28;20052;-78
2023/07/01 03:19:16;;;;;;;4.20;2.42;;;;;;;;;;5048573;28;20043;-78
2023/07/01 03:21:42;;;;;;;7.07;1.92;;;;;;;;;;5036288;28;20033;-79
2023/07/01 03:24:08;;;;;;;6.63;2.00;;;;;;;;;;5044422;28;20056;-77
2023/07/01 03:26:35;;;;;;;9.65;1.73;;;;;;;;;;5060498;28;20033;-79
2023/07/01 03:29:01;;;;;;;4.18;2.25;;;;;;;;;;5049402;28;20061;-78
2023/07/01 03:31:27;;;;;;;5.38;2.20;;;;;;;;;;5047998;28;20323;-77
2023/07/01 03:33:56;;;;;;;5.57;2.38;;;;;;;;;;5045083;28;20017;-81
2023/07/01 03:36:22;;;;;;;14.02;2.13;;;;;;;;;;5049677;28;20060;-76
2023/07/01 03:38:48;;;;;;;6.80;3.05;;;;;;;;;;5045217;28;20033;-79
2023/07/01 03:41:14;;;;;;;5.32;2.50;;;;;;;;;;5057785;28;20060;-78
2023/07/01 03:43:40;;;;;;;8.70;3.70;;;;;;;;;;5044994;28;20033;-78
2023/07/01 03:46:09;;;;;;;3.97;2.70;;;;;;;;;;5065057;28;20040;-80
2023/07/01 03:48:35;;;;;;;5.60;2.80;;;;;;;;;;5058467;28;20040;-78
2023/07/01 03:51:01;;;;;;;5.47;2.15;;;;;;;;;;5044005;28;20037;-77
2023/07/01 03:53:27;;;;;;;5.20;1.50;;;;;;;;;;5049570;28;20026;-79
2023/07/01 03:55:53;;;;;;;7.43;1.92;;;;;;;;;;5058968;28;20156;-77
2023/07/01 03:58:24;;;;;;;2.63;1.65;;;;;;;;;;5040280;28;20792;-78
2023/07/01 04:00:50;;;;;;;4.53;1.95;;;;;;;;;;5044838;28;20017;-78
2023/07/01 04:03:16;;;;;;;3.67;1.55;;;;;;;;;;5064342;28;21302;-78
2023/07/01 04:05:42;;;;;;;3.00;1.85;;;;;;;;;;5042968;28;20057;-79
2023/07/01 04:08:08;;;;;;;8.30;2.05;;;;;;;;;;5044654;28;20045;-79
2023/07/01 04:10:34;;;;;;;6.72;1.60;;;;;;;;;;5064719;28;20030;-78
2023/07/01 04:13:00;;;;;;;4.45;1.88;;;;;;;;;;5037683;28;20037;-79
2023/07/01 04:15:27;;;;;;;4.80;2.22;;;;;;;;;;5049080;28;20032;-78
2023/07/01 04:17:54;;;;;;;5.30;2.22;;;;;;;;;;5048344;28;20029;-79
2023/07/01 04:20:22;;;;;;;3.20;1.73;;;;;;;;;;5043675;28;20055;-78
2023/07/01 04:22:48;;;;;;;3.25;1.60;;;;;;;;;;5046897;28;20029;-80
2023/07/01 04:25:14;;;;;;;3.58;1.75;;;;;;;;;;5037197;28;20071;-78
2023/07/01 04:27:43;;;;;;;5.13;1.75;;;;;;;;;;5058234;28;20035;-79
2023/07/01 04:30:11;;;;;;;2.65;1.60;;;;;;;;;;5064674;28;20049;-77
2023/07/01 04:32:37;;;;;;;6.75;2.08;;;;;;;;;;5043627;28;20017;-78
2023/07/01 04:35:04;;;;;;;6.60;1.63;;;;;;;;;;5036200;28;20642;-77
2023/07/01 04:37:30;;;;;;;7.50;1.73;;;;;;;;;;5048926;28;20097;-79
2023/07/01 04:39:58;;;;;;;3.85;1.85;;;;;;;;;;5047810;28;20119;-80
2023/07/01 04:42:24;;;;;;;3.20;1.70;;;;;;;;;;5043893;28;20076;-79
2023/07/01 04:44:56;;;;;;;5.68;1.92;;;;;;;;;;5040533;28;20041;-80
2023/07/01 04:47:22;;;;;;;5.78;1.52;;;;;;;;;;5036037;28;20036;-77
2023/07/01 04:49:52;;;;;;;5.15;1.80;;;;;;;;;;5039093;28;20037;-79
2023/07/01 04:52:18;;;;;;;7.45;2.30;;;;;;;;;;5048884;28;20017;-79
2023/07/01 04:54:44;;;;;;;5.45;1.98;;;;;;;;;;5041849;28;20482;-77
2023/07/01 04:57:10;;;;;;;4.50;1.95;;;;;;;;;;5056947;28;20049;-77
2023/07/01 04:59:36;;;;;;;11.25;2.20;;;;;;;;;;5045469;28;20033;-78
2023/07/01 05:02:02;;;;;;;6.72;2.33;;;;;;;;;;5043760;28;20442;-78
2023/07/01 05:04:28;;;;;;;3.40;1.90;;;;;;;;;;5048400;28;20032;-79
2023/07/01 05:06:54;;;;;;;8.75;2.15;;;;;;;;;;5047812;28;20049;-78
2023/07/01 05:09:22;;;;;;;9.43;1.80;;;;;;;;;;5043169;28;20029;-78
2023/07/01 05:11:48;;;;;;;4.10;1.80;;;;;;;;;;5063696;28;20033;-77
2023/07/01 05:14:14;;;;;;;4.07;2.10;;;;;;;;;;5046581;28;20231;-79
2023/07/01 05:16:40;;;;;;;4.10;1.85;;;;;;;;;;5047915;28;20038;-78
2023/07/01 05:19:06;;;;;;;2.88;1.70;;;;;;;;;;5063228;28;20147;-77
2023/07/01 05:21:33;;;;;;;5.85;1.73;;;;;;;;;;5062943;28;20053;-76
2023/07/01 05:23:59;;;;;;;4.47;1.80;;;;;;;;;;5035970;28;20033;-78
2023/07/01 05:26:26;;;;;;;7.53;1.67;;;;;;;;;;5036825;28;20705;-78
2023/07/01 05:28:52;;;;;;;4.45;1.90;;;;;;;;;;5043162;28;20044;-79
2023/07/01 05:31:18;;;;;;;3.60;1.85;;;;;;;;;;5041839;28;20029;-77
2023/07/01 05:33:45;;;;;;;4.13;2.08;;;;;;;;;;5048407;28;20104;-79
2023/07/01 05:36:11;;;;;;;3.92;1.98;;;;;;;;;;5048682;28;20068;-80
2023/07/01 05:38:37;;;;;;;7.60;2.08;;;;;;;;;;5040177;28;20056;-79
2023/07/01 05:41:03;;;;;;;6.22;2.58;;;;;;;;;;5064246;28;20025;-78
2023/07/01 05:43:29;;;;;;;4.32;2.55;;;;;;;;;;5037574;28;20038;-79
2023/07/01 05:45:56;;;;;;;6.65;2.15;;;;;;;;;;5063368;28;20029;-76
2023/07/01 05:48:22;;;;;;;8.23;5.55;;;;;;;;;;5057107;28;20033;-78
2023/07/01 05:50:48;;;;;;;7.88;4.53;;;;;;;;;;5037279;28;20037;-80
2023/07/01 05:53:14;;;;;;;7.18;2.00;;;;;;;;;;5042766;28;20044;-79
2023/07/01 05:55:40;;;;;;;11.27;1.95;;;;;;;;;;5064067;28;20497;-79
2023/07/01 05:58:05;;;;;;;2.53;1.48;;;;;;;;;;5057462;28;20029;-78
2023/07/01 06:00:31;;;;;;;3.67;1.35;;;;;;;;;;5064079;28;20010;-77
2023/07/01 06:02:57;;;;;;;3.58;1.77;;;;;;;;;;5038767;28;20032;-79
2023/07/01 06:05:23;;;;;;;3.00;1.48;;;;;;;;;;5042710;28;20029;-77
2023/07/01 06:07:49;;;;;;;4.43;1.40;;;;;;;;;;5048331;28;20041;-78
2023/07/01 06:10:15;;;;;;;8.57;1.77;;;;;;;;;;5038443;28;20024;-78
2023/07/01 06:12:41;;;;;;;3.35;1.80;;;;;;;;;;5056483;28;20025;-80
2023/07/01 06:15:08;;;;;;;6.93;1.90;;;;;;;;;;5048312;28;20029;-78
2023/07/01 06:17:34;;;;;;;8.40;2.58;;;;;;;;;;5038461;28;20029;-79
2023/07/01 06:19:59;;;;;;;2.90;1.95;;;;;;;;;;5044673;28;20087;-78
2023/07/01 06:22:25;;;;;;;5.97;1.90;;;;;;;;;;5042716;28;20037;-78
2023/07/01 06:24:51;;;;;;;7.38;2.30;;;;;;;;;;5055148;28;20041;-79
2023/07/01 06:27:17;;;;;;;7.70;2.45;;;;;;;;;;5058522;28;20029;-76
2023/07/01 06:29:43;;;;;;;6.80;1.85;;;;;;;;;;5060717;28;20029;-78
2023/07/01 06:32:09;;;;;;;7.82;2.35;;;;;;;;;;5070570;28;20052;-77
2023/07/01 06:34:35;;;;;;;4.90;1.80;;;;;;;;;;5043003;28;20044;-78
2023/07/01 06:37:02;;;;;;;4.88;2.28;;;;;;;;;;5043211;28;20057;-78
2023/07/01 06:39:30;;;;;;;5.88;2.47;;;;;;;;;;5062084;28;20033;-79
2023/07/01 06:41:56;;;;;;;7.90;2.47;;;;;;;;;;5047676;28;20036;-79
2023/07/01 06:44:22;;;;;;;4.20;2.20;;;;;;;;;;5069654;28;20025;-78
2023/07/01 06:46:48;;;;;;;9.27;2.33;;;;;;;;;;5049324;28;20017;-78
2023/07/01 06:49:14;;;;;;;7.93;3.08;;;;;;;;;;5069540;28;20037;-78
2023/07/01 06:51:41;;;;;;;4.57;2.65;;;;;;;;;;5049032;28;20112;-79
2023/07/01 06:54:08;;;;;;;6.47;3.53;;;;;;;;;;5048181;28;20049;-77
2023/07/01 06:56:36;;;;;;;4.80;2.60;;;;;;;;;;5053248;28;20044;-78
2023/07/01 06:59:02;;;;;;;4.53;2.80;;;;;;;;;;5053583;28;20029;-80
2023/07/01 07:01:28;;;;;;;5.15;2.45;;;;;;;;;;5063950;28;20040;-79
2023/07/01 07:03:55;;;;;;;7.38;3.80;;;;;;;;;;5054801;28;20030;-78
2023/07/01 07:06:21;;;;;;;11.50;2.97;;;;;;;;;;5043390;28;20061;-79
2023/07/01 07:08:46;;;;;;;5.35;3.10;;;;;;;;;;5047169;28;20017;-78
2023/07/01 07:11:15;;;;;;;8.88;3.60;;;;;;;;;;5049010;28;20140;-79
2023/07/01 07:13:41;;;;;;;7.50;3.38;;;;;;;;;;5042162;28;20017;-77
2023/07/01 07:16:07;;;;;;;5.30;2.80;;;;;;;;;;5053370;28;20041;-80
2023/07/01 07:18:33;;;;;;;5.60;3.35;;;;;;;;;;5054479;28;20085;-79
2023/07/01 07:20:59;;;;;;;5.57;3.40;;;;;;;;;;5054084;28;20039;-78
2023/07/01 07:23:25;;;;;;;5.07;2.88;;;;;;;;;;5053571;28;20037;-77
2023/07/01 07:25:53;;;;;;;9.90;3.38;;;;;;;;;;5054961;28;20037;-78
2023/07/01 07:28:19;;;;;;;5.18;2.80;;;;;;;;;;5070247;28;20025;-77
2023/07/01 07:30:45;;;;;;;5.75;3.13;;;;;;;;;;5054240;28;20036;-79
2023/07/01 07:33:13;;;;;;;5.68;2.85;;;;;;;;;;5044796;28;20085;-79
2023/07/01 07:35:39;;;;;;;5.80;3.20;;;;;;;;;;5048671;28;20033;-77
2023/07/01 07:38:05;;;;;;;4.28;2.70;;;;;;;;;;5055249;28;20018;-79
2023/07/01 07:40:31;;;;;;;5.82;3.50;;;;;;;;;;5053397;28;20029;-80
2023/07/01 07:42:57;;;;;;;3.67;2.65;;;;;;;;;;5045450;28;20014;-78
2023/07/01 07:45:23;;;;;;;8.05;3.63;;;;;;;;;;5047161;28;20049;-78
2023/07/01 07:47:49;;;;;;;4.28;2.30;;;;;;;;;;5046871;28;20097;-78
2023/07/01 07:50:16;;;;;;;3.55;2.78;;;;;;;;;;5061835;28;20041;-78
2023/07/01 07:52:42;;;;;;;5.45;2.13;;;;;;;;;;5052347;28;20045;-77
2023/07/01 07:55:08;;;;;;;5.97;2.47;;;;;;;;;;5039851;28;20033;-77
2023/07/01 07:57:36;;;;;;;4.50;2.33;;;;;;;;;;5050578;28;20166;-77
2023/07/01 08:00:03;;;;;;;4.65;2.53;;;;;;;;;;5050707;28;20047;-78
2023/07/01 08:02:29;;;;;;;3.67;2.58;;;;;;;;;;5066918;28;20065;-78
2023/07/01 08:04:54;;;;;;;3.33;2.25;;;;;;;;;;5050217;28;20017;-78
2023/07/01 08:07:21;;;;;;;2.58;2.03;;;;;;;;;;5050998;28;20071;-79
2023/07/01 08:09:47;;;;;;;4.60;1.98;;;;;;;;;;5046381;28;20034;-77
2023/07/01 08:12:15;;;;;;;3.40;2.13;;;;;;;;;;5046408;28;20086;-79
2023/07/01 08:14:43;;;;;;;6.82;2.35;;;;;;;;;;5049689;28;20013;-79
2023/07/01 08:17:09;;;;;;;2.58;1.65;;;;;;;;;;5050838;28;20033;-77
2023/07/01 08:19:35;;;;;;;5.35;1.95;;;;;;;;;;5045392;28;20036;-77
2023/07/01 08:22:02;;;;;;;7.03;2.72;;;;;;;;;;5046637;28;20022;-76
2023/07/01 08:24:28;;;;;;;3.63;1.70;;;;;;;;;;5045189;28;20025;-80
2023/07/01 08:26:56;;;;;;;3.97;1.77;;;;;;;;;;5039001;28;20025;-79
2023/07/01 08:29:25;;;;;;;3.22;1.67;;;;;;;;;;5050121;28;20030;-79
2023/07/01 08:31:51;;;;;;;3.40;1.70;;;;;;;;;;5047717;28;20029;-76
2023/07/01 08:34:17;;;;;;;4.18;1.60;;;;;;;;;;5036475;28;20064;-77
2023/07/01 08:36:45;;;;;;;3.10;1.30;;;;;;;;;;5045420;28;20029;-78
2023/07/01 08:39:11;;;;;;;3.65;1.88;;;;;;;;;;5058373;28;20041;-76
2023/07/01 08:41:40;;;;;;;3.60;1.90;;;;;;;;;;5064243;28;20041;-78
2023/07/01 08:44:06;;;;;;;3.33;1.45;;;;;;;;;;5047892;28;20041;-79
2023/07/01 08:46:32;;;;;;;5.03;2.30;;;;;;;;;;5043609;28;20041;-79
2023/07/01 08:48:59;;;;;;;5.20;2.25;;;;;;;;;;5045072;28;20052;-76
2023/07/01 08:51:39;;;;;;;4.82;1.80;;;;;;;;;;5044325;28;20037;-76
2023/07/01 08:54:06;;;;;;;5.07;2.00;;;;;;;;;;5049352;28;20025;-75
2023/07/01 08:56:33;;;;;;;3.10;1.90;;;;;;;;;;5105066;22;20040;-77
2023/07/01 08:58:59;;;;;;;2.22;1.67;;;;;;;;;;5071763;28;20035;-75
2023/07/01 09:01:25;;;;;;;10.40;1.92;;;;;;;;;;5083952;28;20104;-76
2023/07/01 09:03:51;;;;;;;3.45;2.13;;;;;;;;;;5072086;28;20045;-76
2023/07/01 09:06:17;;;;;;;3.65;1.85;;;;;;;;;;5075069;28;20086;-78
2023/07/01 09:08:43;;;;;;;3.42;1.65;;;;;;;;;;5070583;28;20024;-77
2023/07/01 09:11:14;;;;;;;4.35;1.50;;;;;;;;;;5069812;28;20029;-78
2023/07/01 09:13:40;;;;;;;3.90;1.50;;;;;;;;;;5070074;28;20025;-79
2023/07/01 09:16:07;;;;;;;1.98;1.25;;;;;;;;;;5072449;28;20017;-76
2023/07/01 09:18:33;;;;;;;2.15;1.33;;;;;;;;;;5073884;28;20112;-78
2023/07/01 09:20:59;;;;;;;2.30;0.95;;;;;;;;;;5071622;28;20017;-78
2023/07/01 09:23:26;;;;;;;2.25;1.15;;;;;;;;;;5075707;28;20041;-78
2023/07/01 09:25:52;;;;;;;2.20;1.27;;;;;;;;;;5071260;28;20049;-79
2023/07/01 09:28:31;;;;;;;2.83;1.55;;;;;;;;;;5070638;28;20033;-79
2023/07/01 09:30:59;;;;;;;1.98;1.30;;;;;;;;;;5072878;28;20025;-78
2023/07/01 09:33:25;;;;;;;7.22;1.40;;;;;;;;;;5070695;28;20009;-78
2023/07/01 09:36:01;;;;;;;2.55;1.27;;;;;;;;;;5070423;28;20028;-78
2023/07/01 09:38:27;;;;;;;3.10;1.65;;;;;;;;;;5068936;28;20274;-78
2023/07/01 09:40:53;;;;;;;3.28;1.30;;;;;;;;;;5071660;28;20033;-79
2023/07/01 09:43:19;;;;;;;3.03;1.70;;;;;;;;;;5072288;28;20047;-78
2023/07/01 09:45:55;;;;;;;2.78;1.25;;;;;;;;;;5070993;28;20295;-78
2023/07/01 09:48:21;;;;;;;3.63;1.75;;;;;;;;;;5070541;28;20029;-77
2023/07/01 09:50:49;;;;;;;2.03;1.50;;;;;;;;;;5069441;28;20036;-78
2023/07/01 09:53:24;;;;;;;4.75;1.30;;;;;;;;;;5068576;28;20025;-77
2023/07/01 09:55:53;;;;;;;2.05;1.48;;;;;;;;;;5073602;28;20064;-78
2023/07/01 09:58:20;;;;;;;2.55;1.75;;;;;;;;;;5071841;28;20047;-79
2023/07/01 10:00:46;;;;;;;3.58;1.60;;;;;;;;;;5069019;28;20029;-78
2023/07/01 10:03:12;;;;;;;2.10;1.33;;;;;;;;;;5071026;28;20036;-79
2023/07/01 10:05:38;;;;;;;2.42;1.20;;;;;;;;;;5067571;28;20028;-80
2023/07/01 10:08:06;;;;;;;1.48;0.93;;;;;;;;;;5068954;28;20036;-81
2023/07/01 10:10:35;;;;;;;1.20;0.90;;;;;;;;;;5067970;28;20053;-79
2023/07/01 10:13:02;;;;;;;2.03;1.10;;;;;;;;;;5069190;28;21872;-81
2023/07/01 10:15:32;;;;;;;1.50;1.10;;;;;;;;;;5072839;28;20016;-78
2023/07/01 10:17:58;;;;;;;1.73;1.20;;;;;;;;;;5081700;28;20033;-80
2023/07/01 10:20:31;;;;;;;1.95;1.13;;;;;;;;;;5068511;28;20029;-78
2023/07/01 10:22:58;;;;;;;1.02;1.00;;;;;;;;;;5066385;28;20030;-77
2023/07/01 10:25:30;;;;;;;2.08;1.10;;;;;;;;;;5068352;28;20032;-79
2023/07/01 10:27:58;;;;;;;;;;;;;;;;;;5070515;28;20061;-79
2023/07/01 10:30:25;;;;;;;2.35;0.85;;;;;;;;;;5068866;28;19932;-78
2023/07/01 10:32:51;;;;;;;1.33;0.90;;;;;;;;;;5069468;28;20048;-78
2023/07/01 10:35:17;;;;;;;1.52;1.10;;;;;;;;;;5072682;28;20041;-78
2023/07/01 10:37:44;;;;;;;1.65;1.13;;;;;;;;;;5068104;28;20049;-79
2023/07/01 10:40:36;;;;;;;3.65;1.40;;;;;;;;;;5069518;28;20085;-76
2023/07/01 10:43:27;;;;;;;1.92;1.60;;;;;;;;;;5066107;28;20167;-76
2023/07/01 10:46:03;;;;;;;1.88;1.42;;;;;;;;;;5067537;28;20013;-77
2023/07/01 10:48:29;;;;;;;4.47;1.50;;;;;;;;;;5067958;28;20025;-78
2023/07/01 10:51:02;;;;;;;2.58;1.92;;;;;;;;;;5069608;28;20368;-76
2023/07/01 10:53:29;;;;;;;4.60;1.48;;;;;;;;;;5067437;28;20037;-76
2023/07/01 10:56:10;;;;;;;3.72;2.15;;;;;;;;;;5072293;28;20029;-76
2023/07/01 10:58:38;;;;;;;2.45;1.33;;;;;;;;;;5070957;28;20093;-77
2023/07/01 11:01:05;;;;;;;3.85;1.55;;;;;;;;;;5068092;28;20112;-76
2023/07/01 11:03:34;;;;;;;5.30;1.20;;;;;;;;;;5066126;28;20032;-79
2023/07/01 11:06:04;;;;;;;2.42;1.30;;;;;;;;;;5068169;28;20021;-81
2023/07/01 11:08:31;;;;;;;1.83;0.80;;;;;;;;;;5067288;28;20070;-77
2023/07/01 11:10:57;;;;;;;3.80;2.03;;;;;;;;;;5068944;28;20036;-78
2023/07/01 11:13:24;;;;;;;1.13;0.73;;;;;;;;;;5067873;28;20059;-79
2023/07/01 11:16:03;;;;;;;1.92;0.98;;;;;;;;;;5070254;28;20025;-77
2023/07/01 11:18:46;;;;;;;2.28;1.02;;;;;;;;;;5072317;28;20017;-76
2023/07/01 11:21:13;;;;;;;3.13;1.13;;;;;;;;;;5071548;28;20044;-76
2023/07/01 11:23:42;;;;;;;2.00;0.85;;;;;;;;;;5068745;28;20033;-77
2023/07/01 11:26:08;;;;;;;2.13;0.73;;;;;;;;;;5072475;28;20071;-78
2023/07/01 11:28:35;;;;;;;2.40;0.50;;;;;;;;;;5069425;28;22064;-76
2023/07/01 11:31:26;;;;;;;0.85;0.45;;;;;;;;;;5071502;28;20014;-80
2023/07/01 11:33:53;;;;;;;1.30;0.55;;;;;;;;;;5071154;28;20017;-76
2023/07/01 11:36:20;;;;;;;2.55;1.10;;;;;;;;;;5070324;28;20061;-77
2023/07/01 11:38:47;;;;;;;1.52;0.80;;;;;;;;;;5072893;28;20037;-76
2023/07/01 11:41:17;;;;;;;1.65;1.27;;;;;;;;;;5071959;28;20028;-76
2023/07/01 11:43:44;;;;;;;1.73;0.98;;;;;;;;;;5070525;28;20127;-79
2023/07/01 11:46:12;;;;;;;1.35;0.57;;;;;;;;;;5071035;28;20017;-77
2023/07/01 11:48:38;;;;;;;2.05;0.60;;;;;;;;;;5073198;28;20053;-78
2023/07/01 11:51:04;;;;;;;1.48;0.85;;;;;;;;;;5072413;28;20025;-79
2023/07/01 11:53:31;;;;;;;1.40;0.80;;;;;;;;;;5070880;28;20032;-76
2023/07/01 11:56:02;;;;;;;2.15;0.60;;;;;;;;;;5071998;28;20040;-77
2023/07/01 11:58:39;;;;;;;1.00;0.60;;;;;;;;;;5072580;28;20410;-76
2023/07/01 12:01:21;;;;;;;1.30;1.08;;;;;;;;;;5069018;28;20021;-76
2023/07/01 12:03:47;;;;;;;1.25;0.82;;;;;;;;;;5072099;28;20037;-76
2023/07/01 12:06:21;;;;;;;1.35;0.80;;;;;;;;;;5074049;28;20177;-77
2023/07/01 12:08:55;;;;;;;1.40;0.80;;;;;;;;;;5071765;28;20175;-78
2023/07/01 12:11:22;;;;;;;1.42;0.80;;;;;;;;;;5073453;28;21040;-79
2023/07/01 12:13:48;;;;;;;2.42;1.30;;;;;;;;;;5075790;28;20028;-76
2023/07/01 12:16:15;;;;;;;1.63;0.95;;;;;;;;;;5072822;28;20056;-77
2023/07/01 12:18:41;;;;;;;1.45;0.80;;;;;;;;;;5072474;28;20100;-76
2023/07/01 12:21:07;;;;;;;2.10;1.00;;;;;;;;;;5071777;28;20031;-76
2023/07/01 12:23:43;;;;;;;3.42;1.25;;;;;;;;;;5072122;28;20034;-76
2023/07/01 12:26:09;;;;;;;3.72;1.08;;;;;;;;;;5070909;28;20032;-77
2023/07/01 12:28:39;;;;;;;1.63;0.88;;;;;;;;;;5069663;28;20098;-76
2023/07/01 12:31:05;;;;;;;1.67;0.50;;;;;;;;;;5072636;28;20033;-75
2023/07/01 12:33:31;;;;;;;3.83;0.80;;;;;;;;;;5071479;28;20026;-77
2023/07/01 12:35:57;;;;;;;3.85;0.82;;;;;;;;;;5071193;28;20045;-77
2023/07/01 12:38:23;;;;;;;3.65;0.85;;;;;;;;;;5071504;28;20063;-76
2023/07/01 12:40:52;;;;;;;2.88;0.65;;;;;;;;;;5071835;28;20028;-77
2023/07/01 12:43:18;;;;;;;1.95;0.73;;;;;;;;;;5071289;28;20029;-78
2023/07/01 12:45:44;;;;;;;1.70;0.93;;;;;;;;;;5072998;28;20025;-76
2023/07/01 12:48:10;;;;;;;3.95;0.80;;;;;;;;;;5072953;28;20033;-78
2023/07/01 12:50:36;;;;;;;2.35;0.77;;;;;;;;;;5072819;28;20028;-76
2023/07/01 12:53:02;;;;;;;1.30;0.60;;;;;;;;;;5070584;28;20101;-77
2023/07/01 12:55:28;;;;;;;2.58;0.75;;;;;;;;;;5069839;28;20049;-76
2023/07/01 12:57:54;;;;;;;4.00;1.17;;;;;;;;;;5073255;28;20013;-76
2023/07/01 13:00:21;;;;;;;2.75;2.10;;;;;;;;;;5072718;28;20021;-77
2023/07/01 13:02:47;;;;;;;3.25;1.30;;;;;;;;;;5070060;28;20097;-78
2023/07/01 13:05:17;;;;;;;2.22;1.08;;;;;;;;;;5072756;28;20037;-77
2023/07/01 13:07:43;;;;;;;1.83;0.80;;;;;;;;;;5064673;28;20104;-78
2023/07/01 13:10:11;;;;;;;2.05;0.80;;;;;;;;;;5075765;28;20025;-77
2023/07/01 13:12:37;;;;;;;1.33;0.98;;;;;;;;;;5074947;28;20072;-78
2023/07/01 13:15:27;;;;;;;6.80;1.08;;;;;;;;;;5074414;28;20029;-79
2023/07/01 13:17:53;;;;;;;4.07;0.90;;;;;;;;;;5087408;28;20029;-79
2023/07/01 13:20:20;;;;;;;1.25;0.93;;;;;;;;;;5072426;28;20033;-80
2023/07/01 13:22:50;;;;;;;1.13;0.93;;;;;;;;;;5074090;28;20025;-78
2023/07/01 13:25:19;;;;;;;2.25;0.70;;;;;;;;;;5069760;28;20100;-79
2023/07/01 13:27:45;;;;;;;0.75;0.45;;;;;;;;;;5071190;28;20040;-79
2023/07/01 13:30:34;;;;;;;1.00;0.40;;;;;;;;;;5068569;28;20025;-79
2023/07/01 13:33:02;;;;;;;2.88;0.85;;;;;;;;;;5072666;28;20013;-79
2023/07/01 13:35:29;;;;;;;2.35;1.25;;;;;;;;;;5067101;28;20067;-79
2023/07/01 13:38:04;;;;;;;12.73;1.60;;;;;;;;;;5072762;28;20137;-79
2023/07/01 13:40:30;;;;;;;1.88;1.58;;;;;;;;;;5076164;28;20014;-79
2023/07/01 13:42:56;;;;;;;2.88;1.40;;;;;;;;;;5072228;28;20104;-79
2023/07/01 13:45:27;;;;;;;3.10;1.45;;;;;;;;;;5067846;28;20060;-79
2023/07/01 13:47:53;;;;;;;2.00;1.50;;;;;;;;;;5069783;28;20041;-80
2023/07/01 13:50:20;;;;;;;6.82;1.90;;;;;;;;;;5074995;28;20049;-79
2023/07/01 13:52:46;;;;;;;3.90;1.60;;;;;;;;;;5076281;28;20033;-79
2023/07/01 13:55:12;;;;;;;3.83;2.22;;;;;;;;;;5071759;28;20013;-79
2023/07/01 13:57:38;;;;;;;5.88;1.02;;;;;;;;;;5078389;28;20025;-78
2023/07/01 14:00:07;;;;;;;1.02;0.80;;;;;;;;;;5094339;28;20033;-79
2023/07/01 14:02:38;;;;;;;1.42;0.98;;;;;;;;;;5074178;28;20088;-78
2023/07/01 14:05:05;;;;;;;4.25;1.48;;;;;;;;;;5073081;28;20021;-78
2023/07/01 14:07:33;;;;;;;4.47;1.17;;;;;;;;;;5071091;28;20049;-78
2023/07/01 14:09:59;;;;;;;2.38;0.90;;;;;;;;;;5074769;28;20028;-79
2023/07/01 14:12:25;;;;;;;1.10;0.90;;;;;;;;;;5074521;28;20017;-78
2023/07/01 14:14:51;;;;;;;1.95;0.90;;;;;;;;;;5076192;28;20076;-78
2023/07/01 14:17:18;;;;;;;1.15;0.93;;;;;;;;;;5073212;28;20123;-79
2023/07/01 14:19:47;;;;;;;1.27;0.70;;;;;;;;;;5082966;28;20047;-79
2023/07/01 14:22:13;;;;;;;1.33;0.88;;;;;;;;;;5062289;28;20029;-80
2023/07/01 14:24:39;;;;;;;1.42;1.10;;;;;;;;;;5056410;28;20075;-80
2023/07/01 14:27:05;;;;;;;5.13;0.90;;;;;;;;;;5052009;28;20021;-80
2023/07/01 14:29:32;;;;;;;1.63;0.80;;;;;;;;;;5049130;28;20017;-81
2023/07/01 14:31:58;;;;;;;2.28;0.93;;;;;;;;;;5048070;28;20048;-82
2023/07/01 14:34:24;;;;;;;2.08;0.88;;;;;;;;;;5047765;28;21613;-82
2023/07/01 14:36:54;;;;;;;2.88;0.80;;;;;;;;;;5048292;28;20063;-82
2023/07/01 14:39:55;;;;;;;1.38;0.95;;;;;;;;;;5044990;28;20032;-83
2023/07/01 14:42:25;;;;;;;2.83;0.55;;;;;;;;;;5031277;28;20569;-82
2023/07/01 14:44:51;;;;;;;1.83;0.50;;;;;;;;;;5060583;28;20465;-83
2023/07/01 14:47:17;;;;;;;2.80;0.73;;;;;;;;;;5051209;28;20051;-82